createdAt,value
2019-03-27T00:00:38.597Z,100167.45
2019-03-27T00:03:12.598Z,100161.37
2019-03-27T00:05:45.028Z,100169.37
2019-03-27T00:08:17.275Z,100175.58
2019-03-27T00:10:49.604Z,100180.41
2019-03-27T00:13:21.914Z,100179.05
2019-03-27T00:15:54.159Z,100173.04
2019-03-27T00:18:26.505Z,100179.67
2019-03-27T00:20:59.149Z,100165.00
2019-03-27T00:23:31.499Z,100173.98
2019-03-27T00:26:03.779Z,100167.66
2019-03-27T00:28:36.035Z,100170.81
2019-03-27T00:31:11.624Z,100154.80
2019-03-27T00:33:42.235Z,100147.48
2019-03-27T00:36:14.520Z,100147.65
2019-03-27T00:38:46.767Z,100149.55
2019-03-27T00:41:19.006Z,100154.16
2019-03-27T00:43:51.457Z,100157.61
2019-03-27T00:46:25.379Z,100159.94
2019-03-27T00:48:57.734Z,100159.51
2019-03-27T00:51:30.146Z,100165.83
2019-03-27T00:54:02.446Z,100171.28
2019-03-27T00:56:34.727Z,100174.38
2019-03-27T00:59:07.841Z,100169.17
2019-03-27T01:01:40.106Z,100171.11
2019-03-27T01:04:12.345Z,100168.05
2019-03-27T01:06:44.632Z,100180.47
2019-03-27T01:09:16.929Z,100175.09
2019-03-27T01:11:51.414Z,100191.81
2019-03-27T01:14:23.699Z,100180.08
2019-03-27T01:16:56.013Z,100175.90
2019-03-27T01:19:28.257Z,100182.16
2019-03-27T01:22:09.642Z,100181.76
2019-03-27T01:24:49.509Z,100195.89
2019-03-27T01:27:29.499Z,100201.20
2019-03-27T01:33:30.652Z,100209.84
2019-03-27T01:36:09.702Z,100213.74
2019-03-27T01:38:42.001Z,100211.75
2019-03-27T01:41:14.332Z,100214.45
2019-03-27T01:43:48.908Z,100213.98
2019-03-27T01:46:21.259Z,100219.31
2019-03-27T01:48:53.627Z,100220.76
2019-03-27T01:51:32.511Z,100201.76
2019-03-27T01:55:26.921Z,100207.16
2019-03-27T01:58:20.151Z,100204.16
2019-03-27T02:00:54.168Z,100204.94
2019-03-27T02:03:26.473Z,100205.26
2019-03-27T02:05:59.187Z,100195.63
2019-03-27T02:08:31.469Z,100202.21
2019-03-27T02:11:04.767Z,100215.72
2019-03-27T02:13:37.048Z,100215.78
2019-03-27T02:16:45.252Z,100212.05
2019-03-27T02:19:19.911Z,100211.89
2019-03-27T02:22:02.298Z,100229.59
2019-03-27T02:24:36.836Z,100230.27
2019-03-27T02:27:16.190Z,100194.00
2019-03-27T02:29:56.956Z,100230.42
2019-03-27T02:32:35.356Z,100233.67
2019-03-27T02:35:32.469Z,100243.56
2019-03-27T02:38:07.923Z,100247.03
2019-03-27T02:40:41.274Z,100249.53
2019-03-27T02:43:31.702Z,100243.86
2019-03-27T02:46:04.132Z,100240.97
2019-03-27T02:48:40.491Z,100227.59
2019-03-27T02:51:30.828Z,100241.19
2019-03-27T02:54:03.599Z,100231.84
2019-03-27T02:56:35.888Z,100241.83
2019-03-27T02:59:09.636Z,100241.19
2019-03-27T03:02:02.852Z,100250.56
2019-03-27T03:04:58.817Z,100246.78
2019-03-27T03:07:34.366Z,100251.41
2019-03-27T03:10:57.328Z,100249.42
2019-03-27T03:12:54.582Z,100252.16
2019-03-27T03:15:28.651Z,100255.80
2019-03-27T03:18:09.741Z,100259.86
2019-03-27T03:20:42.026Z,100253.16
2019-03-27T03:23:24.887Z,100259.95
2019-03-27T03:26:06.408Z,100263.47
2019-03-27T03:28:38.743Z,100269.80
2019-03-27T03:31:18.792Z,100278.71
2019-03-27T03:36:59.266Z,100286.37
2019-03-27T03:39:31.553Z,100281.53
2019-03-27T03:42:03.861Z,100291.31
2019-03-27T03:44:36.182Z,100283.77
2019-03-27T03:47:08.526Z,100284.35
2019-03-27T03:50:01.154Z,100292.27
2019-03-27T03:52:38.310Z,100286.52
2019-03-27T03:55:24.080Z,100298.48
2019-03-27T03:59:36.548Z,100300.45
2019-03-27T04:01:22.268Z,100296.84
2019-03-27T04:04:03.647Z,100301.02
2019-03-27T04:06:37.861Z,100298.81
2019-03-27T04:09:12.076Z,100305.66
2019-03-27T04:12:11.229Z,100307.25
2019-03-27T04:14:43.681Z,100300.40
2019-03-27T04:17:18.120Z,100298.81
2019-03-27T04:19:50.462Z,100299.17
2019-03-27T04:22:23.414Z,100294.58
2019-03-27T04:25:14.905Z,100313.95
2019-03-27T04:27:47.204Z,100302.94
2019-03-27T04:30:19.836Z,100317.83
2019-03-27T04:32:52.634Z,100327.24
2019-03-27T04:35:27.118Z,100327.17
2019-03-27T04:38:03.582Z,100332.47
2019-03-27T04:40:36.209Z,100331.06
2019-03-27T04:43:16.472Z,100339.41
2019-03-27T04:45:48.759Z,100344.38
2019-03-27T04:48:21.143Z,100348.64
2019-03-27T04:50:55.502Z,100356.69
2019-03-27T04:53:28.444Z,100357.45
2019-03-27T04:56:01.142Z,100368.45
2019-03-27T04:58:33.723Z,100368.41
2019-03-27T05:01:06.006Z,100373.85
2019-03-27T05:03:38.852Z,100376.03
2019-03-27T05:06:11.625Z,100382.66
2019-03-27T05:08:43.987Z,100378.48
2019-03-27T05:11:16.224Z,100383.45
2019-03-27T05:13:48.494Z,100381.77
2019-03-27T05:16:20.765Z,100377.99
2019-03-27T05:18:53.052Z,100384.83
2019-03-27T05:21:25.333Z,100400.92
2019-03-27T05:23:57.639Z,100402.20
2019-03-27T05:26:29.999Z,100395.58
2019-03-27T05:29:02.456Z,100399.25
2019-03-27T05:31:35.104Z,100395.13
2019-03-27T05:34:07.414Z,100399.61
2019-03-27T05:36:41.277Z,100387.73
2019-03-27T05:39:14.661Z,100397.42
2019-03-27T05:41:47.580Z,100390.47
2019-03-27T05:44:19.892Z,100400.52
2019-03-27T05:46:52.228Z,100411.13
2019-03-27T05:49:24.549Z,100409.27
2019-03-27T05:51:56.839Z,100413.25
2019-03-27T05:54:29.561Z,100414.84
2019-03-27T05:57:02.956Z,100422.20
2019-03-27T05:59:39.082Z,100420.97
2019-03-27T06:02:11.383Z,100427.30
2019-03-27T06:04:43.671Z,100433.77
2019-03-27T06:07:15.971Z,100436.70
2019-03-27T06:09:48.263Z,100442.17
2019-03-27T06:12:21.956Z,100442.41
2019-03-27T06:14:54.196Z,100444.41
2019-03-27T06:17:27.698Z,100451.50
2019-03-27T06:19:59.933Z,100458.49
2019-03-27T06:22:32.457Z,100464.30
2019-03-27T06:25:05.219Z,100457.67
2019-03-27T06:27:38.611Z,100463.20
2019-03-27T06:30:11.002Z,100463.78
2019-03-27T06:32:43.324Z,100469.69
2019-03-27T06:35:20.076Z,100477.73
2019-03-27T06:37:51.467Z,100485.14
2019-03-27T06:40:23.762Z,100485.95
2019-03-27T06:42:56.053Z,100499.41
2019-03-27T06:45:28.354Z,100502.88
2019-03-27T06:48:00.612Z,100511.17
2019-03-27T06:50:32.941Z,100521.17
2019-03-27T06:53:05.593Z,100521.29
2019-03-27T06:55:37.846Z,100525.92
2019-03-27T06:58:11.846Z,100534.74
2019-03-27T07:00:44.098Z,100529.45
2019-03-27T07:03:16.402Z,100534.63
2019-03-27T07:05:49.637Z,100539.50
2019-03-27T07:08:21.944Z,100541.14
2019-03-27T07:10:54.197Z,100546.94
2019-03-27T07:13:26.574Z,100550.19
2019-03-27T07:15:58.866Z,100554.65
2019-03-27T07:18:40.058Z,100551.23
2019-03-27T07:21:05.170Z,100553.61
2019-03-27T07:23:37.643Z,100551.27
2019-03-27T07:26:09.935Z,100562.63
2019-03-27T07:28:42.318Z,100563.83
2019-03-27T07:31:14.636Z,100562.95
2019-03-27T07:33:46.887Z,100570.52
2019-03-27T07:36:19.198Z,100574.98
2019-03-27T07:38:51.514Z,100576.37
2019-03-27T07:41:23.860Z,100582.91
2019-03-27T07:43:57.245Z,100579.97
2019-03-27T07:46:29.538Z,100571.73
2019-03-27T07:49:01.853Z,100577.84
2019-03-27T07:51:34.407Z,100584.91
2019-03-27T07:54:06.794Z,100584.61
2019-03-27T07:56:40.463Z,100586.95
2019-03-27T07:59:12.829Z,100577.61
2019-03-27T08:01:45.133Z,100582.87
2019-03-27T08:04:17.381Z,100587.14
2019-03-27T08:06:49.626Z,100577.98
2019-03-27T08:09:23.128Z,100577.70
2019-03-27T08:11:55.608Z,100576.50
2019-03-27T08:14:27.910Z,100578.69
2019-03-27T08:17:00.204Z,100577.69
2019-03-27T08:19:32.460Z,100580.98
2019-03-27T08:22:04.773Z,100580.12
2019-03-27T08:24:37.075Z,100576.72
2019-03-27T08:32:00.361Z,100574.04
2019-03-27T08:35:10.504Z,100574.52
2019-03-27T08:37:44.534Z,100569.59
2019-03-27T08:40:16.762Z,100569.72
2019-03-27T08:42:49.044Z,100576.84
2019-03-27T08:45:21.304Z,100580.47
2019-03-27T08:47:53.544Z,100578.63
2019-03-27T08:50:25.796Z,100575.20
2019-03-27T08:52:58.058Z,100567.89
2019-03-27T08:55:30.328Z,100570.31
2019-03-27T08:58:02.595Z,100571.30
2019-03-27T09:00:54.643Z,100577.72
2019-03-27T09:03:26.897Z,100577.90
2019-03-27T09:05:59.271Z,100575.17
2019-03-27T09:08:31.557Z,100585.63
2019-03-27T09:11:04.803Z,100575.70
2019-03-27T09:13:37.269Z,100578.34
2019-03-27T09:16:11.164Z,100573.45
2019-03-27T09:18:43.413Z,100573.34
2019-03-27T09:21:15.729Z,100578.24
2019-03-27T09:23:47.984Z,100578.45
2019-03-27T09:26:20.270Z,100578.55
2019-03-27T09:28:52.530Z,100583.98
2019-03-27T09:31:25.269Z,100577.69
2019-03-27T09:33:57.663Z,100584.89
2019-03-27T09:36:30.088Z,100579.77
2019-03-27T09:39:02.371Z,100585.83
2019-03-27T09:41:35.832Z,100587.87
2019-03-27T09:44:08.128Z,100589.77
2019-03-27T09:46:40.376Z,100581.55
2019-03-27T09:49:12.709Z,100584.73
2019-03-27T09:51:44.945Z,100589.86
2019-03-27T09:54:17.262Z,100595.02
2019-03-27T09:56:49.516Z,100584.42
2019-03-27T09:59:21.803Z,100589.48
2019-03-27T10:01:54.137Z,100587.48
2019-03-27T10:04:27.542Z,100588.64
2019-03-27T10:06:59.840Z,100584.96
2019-03-27T10:09:32.106Z,100595.05
2019-03-27T10:12:05.082Z,100599.58
2019-03-27T10:14:37.362Z,100594.23
2019-03-27T10:17:10.142Z,100593.06
2019-03-27T10:19:42.409Z,100598.34
2019-03-27T10:22:14.682Z,100593.12
2019-03-27T10:24:47.022Z,100593.54
2019-03-27T10:27:19.294Z,100594.80
2019-03-27T10:29:51.636Z,100595.22
2019-03-27T10:32:23.903Z,100592.65
2019-03-27T10:34:56.210Z,100597.52
2019-03-27T10:37:28.460Z,100589.90
2019-03-27T10:40:00.761Z,100587.90
2019-03-27T10:42:33.015Z,100590.45
2019-03-27T10:45:05.384Z,100588.78
2019-03-27T10:47:37.709Z,100592.56
2019-03-27T10:50:17.660Z,100595.34
2019-03-27T10:52:43.996Z,100600.63
2019-03-27T10:55:16.301Z,100592.99
2019-03-27T10:57:48.540Z,100593.05
2019-03-27T11:00:20.839Z,100592.91
2019-03-27T11:02:53.189Z,100593.20
2019-03-27T11:05:25.618Z,100591.38
2019-03-27T11:07:57.890Z,100595.30
2019-03-27T11:10:30.165Z,100585.99
2019-03-27T11:13:02.540Z,100583.63
2019-03-27T11:15:34.772Z,100578.19
2019-03-27T11:18:07.948Z,100575.87
2019-03-27T11:20:42.046Z,100576.81
2019-03-27T11:23:14.324Z,100572.19
2019-03-27T11:25:46.568Z,100574.70
2019-03-27T11:28:18.858Z,100573.26
2019-03-27T11:30:51.109Z,100572.89
2019-03-27T11:33:23.398Z,100566.78
2019-03-27T11:35:55.642Z,100565.02
2019-03-27T11:38:27.965Z,100560.05
2019-03-27T11:41:00.264Z,100558.72
2019-03-27T11:43:32.583Z,100556.34
2019-03-27T11:46:05.611Z,100554.36
2019-03-27T11:48:37.903Z,100545.00
2019-03-27T11:51:10.281Z,100542.78
2019-03-27T11:53:42.570Z,100538.73
2019-03-27T11:56:14.868Z,100534.12
2019-03-27T11:58:47.172Z,100535.73
2019-03-27T12:01:19.471Z,100529.71
2019-03-27T12:03:51.725Z,100533.57
2019-03-27T12:06:24.025Z,100535.77
2019-03-27T12:08:56.612Z,100544.25
2019-03-27T12:11:28.919Z,100535.87
2019-03-27T12:14:01.148Z,100535.34
2019-03-27T12:16:33.586Z,100540.51
2019-03-27T12:19:05.946Z,100536.36
2019-03-27T12:21:38.268Z,100529.27
2019-03-27T12:24:10.862Z,100516.56
2019-03-27T12:26:43.829Z,100530.62
2019-03-27T12:29:18.140Z,100520.22
2019-03-27T12:31:51.134Z,100520.12
2019-03-27T12:34:23.452Z,100518.86
2019-03-27T12:36:55.767Z,100521.31
2019-03-27T12:39:28.110Z,100527.69
2019-03-27T12:42:00.420Z,100517.30
2019-03-27T12:44:32.696Z,100516.39
2019-03-27T12:47:06.531Z,100511.95
2019-03-27T12:49:38.933Z,100513.86
2019-03-27T12:52:11.232Z,100515.75
2019-03-27T12:54:43.688Z,100507.56
2019-03-27T12:57:16.010Z,100506.14
2019-03-27T12:59:48.287Z,100499.06
2019-03-27T13:02:20.890Z,100499.61
2019-03-27T13:04:53.134Z,100503.12
2019-03-27T13:07:25.393Z,100501.25
2019-03-27T13:09:57.690Z,100503.71
2019-03-27T13:12:30.098Z,100498.26
2019-03-27T13:15:02.372Z,100499.71
2019-03-27T13:17:34.765Z,100495.75
2019-03-27T13:20:07.553Z,100497.80
2019-03-27T13:22:39.880Z,100493.69
2019-03-27T13:25:12.133Z,100499.70
2019-03-27T13:27:47.370Z,100493.31
2019-03-27T13:30:19.663Z,100488.89
2019-03-27T13:32:51.929Z,100490.00
2019-03-27T13:35:24.178Z,100485.80
2019-03-27T13:37:56.511Z,100485.78
2019-03-27T13:40:28.752Z,100484.01
2019-03-27T13:43:01.033Z,100479.30
2019-03-27T13:45:33.343Z,100483.31
2019-03-27T13:48:05.677Z,100470.19
2019-03-27T13:50:38.129Z,100470.57
2019-03-27T13:53:10.499Z,100463.90
2019-03-27T13:55:42.817Z,100467.01
2019-03-27T13:58:15.227Z,100465.66
2019-03-27T14:00:47.511Z,100461.01
2019-03-27T14:03:19.849Z,100453.23
2019-03-27T14:05:52.135Z,100450.42
2019-03-27T14:08:24.413Z,100451.11
2019-03-27T14:10:57.030Z,100451.16
2019-03-27T14:13:29.487Z,100448.77
2019-03-27T14:16:01.928Z,100445.27
2019-03-27T14:18:34.242Z,100445.53
2019-03-27T14:21:06.851Z,100450.16
2019-03-27T14:23:39.117Z,100446.45
2019-03-27T14:26:13.109Z,100447.84
2019-03-27T14:28:45.357Z,100455.01
2019-03-27T14:31:18.602Z,100451.61
2019-03-27T14:33:50.883Z,100442.69
2019-03-27T14:36:23.157Z,100449.11
2019-03-27T14:38:55.443Z,100445.95
2019-03-27T14:41:27.755Z,100446.48
2019-03-27T14:44:00.020Z,100428.59
2019-03-27T14:46:32.331Z,100448.39
2019-03-27T14:49:04.605Z,100441.02
2019-03-27T14:51:36.905Z,100443.45
2019-03-27T14:54:09.208Z,100441.52
2019-03-27T14:56:41.518Z,100429.98
2019-03-27T14:59:13.800Z,100429.76
2019-03-27T15:01:47.351Z,100415.92
2019-03-27T15:04:19.922Z,100426.38
2019-03-27T15:06:52.228Z,100425.78
2019-03-27T15:09:24.548Z,100416.04
2019-03-27T15:11:57.230Z,100426.73
2019-03-27T15:14:29.524Z,100416.23
2019-03-27T15:17:01.818Z,100411.19
2019-03-27T15:19:35.164Z,100410.63
2019-03-27T15:22:21.455Z,100415.79
2019-03-27T15:24:41.386Z,100410.80
2019-03-27T15:27:13.674Z,100410.17
2019-03-27T15:29:45.990Z,100409.17
2019-03-27T15:32:18.233Z,100410.86
2019-03-27T15:34:50.571Z,100409.45
2019-03-27T15:37:22.918Z,100408.77
2019-03-27T15:39:55.342Z,100399.25
2019-03-27T15:42:27.629Z,100405.61
2019-03-27T15:44:59.898Z,100398.67
2019-03-27T15:47:32.151Z,100400.66
2019-03-27T15:50:05.125Z,100399.82
2019-03-27T15:52:37.505Z,100392.05
2019-03-27T15:55:10.145Z,100398.08
2019-03-27T15:57:42.444Z,100399.69
2019-03-27T16:00:14.837Z,100393.77
2019-03-27T16:02:47.179Z,100389.72
2019-03-27T16:05:19.423Z,100394.55
2019-03-27T16:07:52.246Z,100392.04
2019-03-27T16:10:24.680Z,100389.89
2019-03-27T16:12:57.159Z,100390.05
2019-03-27T16:15:30.022Z,100387.62
2019-03-27T16:18:02.669Z,100384.46
2019-03-27T16:20:35.469Z,100382.06
2019-03-27T16:23:07.868Z,100391.66
2019-03-27T16:25:40.167Z,100388.27
2019-03-27T16:28:12.409Z,100387.28
2019-03-27T16:30:44.703Z,100381.99
2019-03-27T16:33:16.975Z,100386.40
2019-03-27T16:35:49.465Z,100380.58
2019-03-27T16:38:21.698Z,100384.89
2019-03-27T16:40:54.656Z,100383.89
2019-03-27T16:43:27.167Z,100385.84
2019-03-27T16:45:59.522Z,100386.07
2019-03-27T16:48:32.112Z,100380.94
2019-03-27T16:51:05.785Z,100387.78
2019-03-27T16:53:38.188Z,100383.21
2019-03-27T16:56:10.458Z,100381.73
2019-03-27T16:58:42.849Z,100380.91
2019-03-27T17:01:15.137Z,100385.34
2019-03-27T17:03:47.395Z,100383.98
2019-03-27T17:06:19.636Z,100390.03
2019-03-27T17:08:51.883Z,100389.05
2019-03-27T17:11:24.580Z,100395.09
2019-03-27T17:13:56.849Z,100395.72
2019-03-27T17:16:29.092Z,100392.78
2019-03-27T17:19:01.386Z,100392.00
2019-03-27T17:21:33.651Z,100393.15
2019-03-27T17:24:05.980Z,100402.19
2019-03-27T17:26:38.637Z,100398.55
2019-03-27T17:29:11.295Z,100401.48
2019-03-27T17:31:43.602Z,100402.97
2019-03-27T17:34:15.959Z,100402.27
2019-03-27T17:36:48.301Z,100403.09
2019-03-27T17:39:20.415Z,100410.80
2019-03-27T17:41:52.676Z,100414.88
2019-03-27T17:44:24.936Z,100413.03
2019-03-27T17:46:57.789Z,100417.96
2019-03-27T17:49:30.032Z,100420.52
2019-03-27T17:52:02.332Z,100436.63
2019-03-27T17:54:34.602Z,100432.67
2019-03-27T17:57:06.858Z,100435.77
2019-03-27T17:59:39.145Z,100440.12
2019-03-27T18:02:11.412Z,100446.56
2019-03-27T18:04:43.721Z,100443.44
2019-03-27T18:07:15.997Z,100450.44
2019-03-27T18:09:48.283Z,100448.59
2019-03-27T18:12:22.523Z,100452.55
2019-03-27T18:14:54.768Z,100452.12
2019-03-27T18:17:27.027Z,100457.66
2019-03-27T18:19:59.368Z,100455.33
2019-03-27T18:22:31.621Z,100454.29
2019-03-27T18:25:06.510Z,100458.66
2019-03-27T18:27:38.758Z,100457.09
2019-03-27T18:30:11.016Z,100464.19
2019-03-27T18:32:43.351Z,100462.06
2019-03-27T18:35:15.631Z,100460.37
2019-03-27T18:37:47.928Z,100461.34
2019-03-27T18:40:20.628Z,100456.72
2019-03-27T18:42:52.907Z,100463.77
2019-03-27T18:45:25.349Z,100464.86
2019-03-27T18:47:57.663Z,100465.91
2019-03-27T18:50:29.922Z,100467.45
2019-03-27T18:53:02.163Z,100469.09
2019-03-27T18:55:34.424Z,100474.33
2019-03-27T18:58:07.130Z,100471.52
2019-03-27T19:00:39.386Z,100477.91
2019-03-27T19:03:11.692Z,100476.09
2019-03-27T19:05:43.975Z,100479.88
2019-03-27T19:08:16.261Z,100479.04
2019-03-27T19:10:48.509Z,100476.48
2019-03-27T19:13:20.791Z,100478.95
2019-03-27T19:15:53.586Z,100481.27
2019-03-27T19:18:25.856Z,100481.73
2019-03-27T19:20:58.115Z,100483.77
2019-03-27T19:23:30.407Z,100490.56
2019-03-27T19:26:02.671Z,100489.56
2019-03-27T19:28:34.889Z,100496.42
2019-03-27T19:31:07.308Z,100497.34
2019-03-27T19:33:40.886Z,100498.48
2019-03-27T19:36:13.146Z,100501.24
2019-03-27T19:38:45.431Z,100500.84
2019-03-27T19:41:17.769Z,100497.77
2019-03-27T19:43:50.049Z,100501.34
2019-03-27T19:46:22.375Z,100505.63
2019-03-27T19:48:55.129Z,100503.09
2019-03-27T19:51:27.390Z,100509.42
2019-03-27T19:53:59.688Z,100510.75
2019-03-27T19:56:31.967Z,100513.62
2019-03-27T19:59:04.228Z,100522.63
2019-03-27T20:01:36.561Z,100523.30
2019-03-27T20:04:10.073Z,100522.91
2019-03-27T20:06:42.384Z,100519.51
2019-03-27T20:09:14.653Z,100525.36
2019-03-27T20:11:47.147Z,100527.66
2019-03-27T20:14:19.549Z,100526.69
2019-03-27T20:16:51.832Z,100531.75
2019-03-27T20:19:24.208Z,100540.69
2019-03-27T20:21:56.487Z,100538.87
2019-03-27T20:24:40.458Z,100543.13
2019-03-27T20:27:02.675Z,100554.77
2019-03-27T20:29:35.036Z,100555.39
2019-03-27T20:32:08.136Z,100558.86
2019-03-27T20:34:40.390Z,100560.48
2019-03-27T20:37:12.768Z,100570.28
2019-03-27T20:39:45.126Z,100562.87
2019-03-27T20:42:17.410Z,100568.07
2019-03-27T20:44:49.873Z,100570.59
2019-03-27T20:47:22.153Z,100577.95
2019-03-27T20:49:54.433Z,100579.97
2019-03-27T20:52:26.696Z,100582.08
2019-03-27T20:54:58.980Z,100590.23
2019-03-27T20:57:31.370Z,100585.08
2019-03-27T21:00:03.769Z,100589.27
2019-03-27T21:02:36.075Z,100586.03
2019-03-27T21:05:08.973Z,100583.73
2019-03-27T21:07:41.242Z,100594.98
2019-03-27T21:10:15.319Z,100602.19
2019-03-27T21:12:47.590Z,100595.81
2019-03-27T21:15:19.903Z,100596.67
2019-03-27T21:17:52.202Z,100598.14
2019-03-27T21:20:24.489Z,100596.02
2019-03-27T21:22:56.925Z,100596.02
2019-03-27T21:25:29.208Z,100600.23
2019-03-27T21:28:04.708Z,100606.31
2019-03-27T21:30:38.464Z,100605.47
2019-03-27T21:33:10.847Z,100599.30
2019-03-27T21:35:43.224Z,100600.58
2019-03-27T21:38:15.531Z,100608.75
2019-03-27T21:40:47.895Z,100604.61
2019-03-27T21:43:20.222Z,100602.16
2019-03-27T21:45:52.876Z,100606.60
2019-03-27T21:48:25.171Z,100620.64
2019-03-27T21:50:57.499Z,100611.84
2019-03-27T21:53:29.848Z,100618.77
2019-03-27T21:56:02.153Z,100628.91
2019-03-27T21:58:34.541Z,100631.50
2019-03-27T22:01:08.086Z,100631.03
2019-03-27T22:03:40.418Z,100638.73
2019-03-27T22:06:12.776Z,100641.38
2019-03-27T22:08:45.071Z,100644.69
2019-03-27T22:11:18.272Z,100648.00
2019-03-27T22:13:50.634Z,100652.75
2019-03-27T22:16:23.022Z,100656.41
2019-03-27T22:18:55.395Z,100653.53
2019-03-27T22:21:27.750Z,100656.73
2019-03-27T22:24:00.131Z,100660.11
2019-03-27T22:26:32.458Z,100663.94
2019-03-27T22:29:05.305Z,100656.44
2019-03-27T22:31:37.673Z,100657.92
2019-03-27T22:34:10.538Z,100666.34
2019-03-27T22:36:42.924Z,100672.36
2019-03-27T22:39:15.238Z,100677.84
2019-03-27T22:41:48.022Z,100681.16
2019-03-27T22:44:20.370Z,100676.19
2019-03-27T22:46:52.696Z,100686.38
2019-03-27T22:49:25.064Z,100691.63
2019-03-27T22:51:57.844Z,100686.02
2019-03-27T22:54:30.143Z,100693.14
2019-03-27T22:57:02.481Z,100689.75
2019-03-27T22:59:34.870Z,100691.75
2019-03-27T23:02:07.158Z,100698.18
2019-03-27T23:04:39.435Z,100699.38
2019-03-27T23:07:11.792Z,100703.77
2019-03-27T23:09:44.121Z,100696.17
2019-03-27T23:12:16.456Z,100701.43
2019-03-27T23:14:48.802Z,100704.95
2019-03-27T23:17:21.231Z,100699.54
2019-03-27T23:19:53.525Z,100709.21
2019-03-27T23:22:25.895Z,100717.72
2019-03-27T23:24:58.250Z,100719.45
2019-03-27T23:27:30.559Z,100718.78
2019-03-27T23:30:04.078Z,100724.30
2019-03-27T23:32:36.445Z,100728.64
2019-03-27T23:35:11.999Z,100726.45
2019-03-27T23:37:44.340Z,100723.19
2019-03-27T23:40:17.187Z,100731.25
2019-03-27T23:42:49.647Z,100744.17
2019-03-27T23:45:21.982Z,100736.52
2019-03-27T23:47:54.383Z,100739.52
2019-03-27T23:50:26.785Z,100740.02
2019-03-27T23:52:59.115Z,100739.79
2019-03-27T23:55:31.426Z,100741.91
2019-03-27T23:58:03.752Z,100739.19
